Time;durP1;ratioP1;P1;durP2;ratioP2;P2;SDS_P1;SDS_P2;PMS_P1;PMS_P2;Temp;Humidity;BMP_temperature;BMP_pressure;BME280_temperature;BME280_humidity;BME280_pressure;Samples;Min_cycle;Max_cycle;Signal;HPM_P1;HPM_P2
2023/08/12 00:01:48;;;;;;;8.13;2.60;;;21.40;99.90;;;;;;5062582;28;20033;-82
2023/08/12 00:04:15;;;;;;;6.75;2.45;;;21.50;99.90;;;;;;5072954;28;20024;-83
2023/08/12 00:06:42;;;;;;;2.65;2.00;;;21.50;99.90;;;;;;5069868;28;20447;-85
2023/08/12 00:09:08;;;;;;;5.97;2.28;;;21.50;99.90;;;;;;5052578;28;20485;-82
2023/08/12 00:11:38;;;;;;;4.13;2.05;;;21.50;99.90;;;;;;5066678;28;20130;-83
2023/08/12 00:14:04;;;;;;;5.75;2.75;;;21.50;99.90;;;;;;5063011;28;20487;-82
2023/08/12 00:16:29;;;;;;;6.63;2.58;;;21.50;99.90;;;;;;5071025;28;20099;-81
2023/08/12 00:18:56;;;;;;;9.15;2.67;;;21.60;99.90;;;;;;5070462;28;20382;-83
2023/08/12 00:21:21;;;;;;;5.13;2.47;;;21.50;99.90;;;;;;5065760;28;20025;-82
2023/08/12 00:23:49;;;;;;;6.45;2.38;;;21.60;99.90;;;;;;5063739;28;20131;-85
2023/08/12 00:26:15;;;;;;;6.75;2.03;;;21.60;99.90;;;;;;5077680;28;20473;-82
2023/08/12 00:28:41;;;;;;;5.32;2.50;;;21.60;99.90;;;;;;5068682;28;20024;-81
2023/08/12 00:31:06;;;;;;;6.50;2.35;;;21.60;99.90;;;;;;5072189;28;20021;-82
2023/08/12 00:33:32;;;;;;;7.35;2.30;;;21.60;99.90;;;;;;5068459;28;20025;-82
2023/08/12 00:35:58;;;;;;;5.78;1.88;;;21.60;99.90;;;;;;5066204;28;20029;-81
2023/08/12 00:38:23;;;;;;;6.97;2.72;;;21.60;99.90;;;;;;5048371;28;20037;-81
2023/08/12 00:40:49;;;;;;;7.35;2.53;;;21.70;99.90;;;;;;5066595;28;20099;-82
2023/08/12 00:43:14;;;;;;;5.22;2.72;;;21.60;99.90;;;;;;5064736;28;20036;-82
2023/08/12 00:45:41;;;;;;;9.43;3.20;;;21.60;99.90;;;;;;5069612;28;20037;-81
2023/08/12 00:48:08;;;;;;;3.85;2.40;;;21.60;99.90;;;;;;5066740;28;20101;-82
2023/08/12 00:50:36;;;;;;;4.20;2.55;;;21.60;99.90;;;;;;5063464;28;20474;-82
2023/08/12 00:53:02;;;;;;;7.97;2.67;;;21.70;99.90;;;;;;5069430;28;20028;-83
2023/08/12 00:55:27;;;;;;;5.18;2.30;;;21.70;99.90;;;;;;5062639;28;20025;-81
2023/08/12 00:57:53;;;;;;;10.20;2.67;;;21.70;99.90;;;;;;5062814;28;20028;-81
2023/08/12 01:00:24;;;;;;;6.85;2.65;;;21.70;99.90;;;;;;5068881;28;20024;-83
2023/08/12 01:02:51;;;;;;;7.13;2.40;;;21.70;99.90;;;;;;5071336;28;20044;-81
2023/08/12 01:05:17;;;;;;;4.32;2.70;;;21.70;99.90;;;;;;5076676;28;20085;-84
2023/08/12 01:07:45;;;;;;;9.65;2.22;;;21.70;99.90;;;;;;5061764;28;20063;-82
2023/08/12 01:10:14;;;;;;;5.93;2.60;;;21.70;99.90;;;;;;5067029;28;20066;-80
2023/08/12 01:12:47;;;;;;;6.68;2.20;;;21.80;99.90;;;;;;5060324;28;20024;-81
2023/08/12 01:15:21;;;;;;;7.88;2.38;;;21.70;99.90;;;;;;5058686;28;20078;-81
2023/08/12 01:17:51;;;;;;;2.95;2.30;;;21.70;99.90;;;;;;5070247;28;20032;-82
2023/08/12 01:20:24;;;;;;;7.80;2.42;;;21.70;99.90;;;;;;5067737;28;20485;-82
2023/08/12 01:23:13;;;;;;;14.55;2.40;;;21.70;99.90;;;;;;5068014;28;20040;-82
2023/08/12 01:25:38;;;;;;;6.85;3.00;;;21.70;99.90;;;;;;5057779;28;20037;-82
2023/08/12 01:28:05;;;;;;;12.23;3.60;;;21.70;99.90;;;;;;5072100;28;20028;-82
2023/08/12 01:30:32;;;;;;;3.40;2.05;;;21.70;99.90;;;;;;5068763;28;20070;-81
2023/08/12 01:33:09;;;;;;;4.97;2.10;;;21.70;99.90;;;;;;5068997;28;20032;-81
2023/08/12 01:35:52;;;;;;;8.88;2.40;;;21.70;99.90;;;;;;5069558;28;20024;-82
2023/08/12 01:38:19;;;;;;;11.40;2.50;;;21.60;99.90;;;;;;5065454;28;20063;-83
2023/08/12 01:40:46;;;;;;;7.82;2.25;;;21.60;99.90;;;;;;5071054;28;20056;-82
2023/08/12 01:43:12;;;;;;;3.13;1.83;;;21.60;99.90;;;;;;5062195;28;20040;-82
2023/08/12 01:45:38;;;;;;;4.63;2.30;;;21.50;99.90;;;;;;5065315;28;20082;-81
2023/08/12 01:48:05;;;;;;;8.23;2.60;;;21.50;99.90;;;;;;5062732;28;20090;-82
2023/08/12 01:50:30;;;;;;;5.20;1.83;;;21.50;99.90;;;;;;5063054;28;20036;-82
2023/08/12 01:52:56;;;;;;;4.97;2.00;;;21.40;99.90;;;;;;5068884;28;20848;-82
2023/08/12 01:55:22;;;;;;;4.03;2.30;;;21.40;99.90;;;;;;5060690;28;20550;-82
2023/08/12 01:57:47;;;;;;;2.22;2.00;;;21.40;99.90;;;;;;5064469;28;20017;-82
2023/08/12 02:00:13;;;;;;;4.82;2.30;;;21.50;99.90;;;;;;5054525;28;20144;-81
2023/08/12 02:02:38;;;;;;;3.88;2.33;;;21.50;99.90;;;;;;5054069;28;20067;-81
2023/08/12 02:05:04;;;;;;;6.57;2.28;;;21.50;99.90;;;;;;5071593;28;20024;-81
2023/08/12 02:07:30;;;;;;;13.40;2.45;;;21.50;99.90;;;;;;5065704;28;20090;-83
2023/08/12 02:09:56;;;;;;;3.25;2.50;;;21.60;99.90;;;;;;5065691;28;20029;-81
2023/08/12 02:12:24;;;;;;;4.00;2.17;;;21.50;99.90;;;;;;5061152;28;20035;-81
2023/08/12 02:14:50;;;;;;;6.28;1.92;;;21.50;99.90;;;;;;5064740;28;20502;-83
2023/08/12 02:17:15;;;;;;;5.70;2.28;;;21.50;99.90;;;;;;5061789;28;20028;-81
2023/08/12 02:19:41;;;;;;;8.73;2.00;;;21.50;99.90;;;;;;5064801;28;20012;-82
2023/08/12 02:22:06;;;;;;;4.68;2.38;;;21.50;99.90;;;;;;5066394;28;20036;-82
2023/08/12 02:24:32;;;;;;;3.00;2.17;;;21.50;99.90;;;;;;5062994;28;20040;-82
2023/08/12 02:26:58;;;;;;;4.18;2.40;;;21.50;99.90;;;;;;5050655;28;20382;-82
2023/08/12 02:29:23;;;;;;;6.25;2.90;;;21.50;99.90;;;;;;5067211;28;20028;-82
2023/08/12 02:31:49;;;;;;;8.70;1.98;;;21.50;99.90;;;;;;5059141;28;20100;-82
2023/08/12 02:34:14;;;;;;;2.88;2.00;;;21.50;99.90;;;;;;5061833;28;20466;-81
2023/08/12 02:36:40;;;;;;;5.28;2.60;;;21.50;99.90;;;;;;5066059;28;20035;-82
2023/08/12 02:39:05;;;;;;;4.18;2.10;;;21.50;99.90;;;;;;5065598;28;20111;-82
2023/08/12 02:41:31;;;;;;;7.88;2.33;;;21.40;99.90;;;;;;5064601;28;20112;-81
2023/08/12 02:43:57;;;;;;;12.50;2.75;;;21.50;99.90;;;;;;5057398;28;20028;-82
2023/08/12 02:46:24;;;;;;;4.40;2.20;;;21.50;99.90;;;;;;5059834;28;20032;-81
2023/08/12 02:48:51;;;;;;;3.25;1.80;;;21.40;99.90;;;;;;5067999;28;20115;-81
2023/08/12 02:51:17;;;;;;;5.25;2.08;;;21.30;99.90;;;;;;5055600;28;20107;-84
2023/08/12 02:53:42;;;;;;;8.60;2.28;;;21.30;99.90;;;;;;5063379;28;20454;-81
2023/08/12 02:56:08;;;;;;;3.88;2.25;;;21.30;99.90;;;;;;5067345;28;20039;-82
2023/08/12 02:58:34;;;;;;;3.45;1.80;;;21.30;99.90;;;;;;5065005;28;20023;-83
2023/08/12 03:00:59;;;;;;;5.15;2.28;;;21.30;99.90;;;;;;5064015;28;20136;-82
2023/08/12 03:03:25;;;;;;;10.30;2.53;;;21.30;99.90;;;;;;5070537;28;20116;-80
2023/08/12 03:05:51;;;;;;;4.03;2.35;;;21.30;99.90;;;;;;5067528;28;20052;-82
2023/08/12 03:08:16;;;;;;;3.40;2.15;;;21.30;99.90;;;;;;5059861;28;20031;-82
2023/08/12 03:10:42;;;;;;;7.57;2.10;;;21.20;99.90;;;;;;5060451;28;20655;-81
2023/08/12 03:13:08;;;;;;;3.10;2.20;;;21.20;99.90;;;;;;5060412;28;20048;-82
2023/08/12 03:15:33;;;;;;;7.97;2.20;;;21.20;99.90;;;;;;5063125;28;20033;-82
2023/08/12 03:17:59;;;;;;;10.23;2.50;;;21.20;99.90;;;;;;5064673;28;20036;-82
2023/08/12 03:20:24;;;;;;;3.42;1.90;;;21.20;99.90;;;;;;5067047;28;20024;-81
2023/08/12 03:22:50;;;;;;;7.55;2.38;;;21.20;99.90;;;;;;5060862;28;20249;-82
2023/08/12 03:25:16;;;;;;;4.53;2.30;;;21.10;99.90;;;;;;5062229;28;20020;-82
2023/08/12 03:27:42;;;;;;;4.55;2.40;;;21.10;99.90;;;;;;5067172;28;20447;-82
2023/08/12 03:30:08;;;;;;;3.80;2.30;;;21.20;99.90;;;;;;5061506;28;20028;-82
2023/08/12 03:32:34;;;;;;;3.42;2.30;;;21.20;99.90;;;;;;5060514;28;20127;-82
2023/08/12 03:34:59;;;;;;;7.68;2.22;;;21.20;99.90;;;;;;5054875;28;20364;-82
2023/08/12 03:37:26;;;;;;;2.63;2.03;;;21.20;99.90;;;;;;5068535;28;20436;-82
2023/08/12 03:39:51;;;;;;;3.88;1.70;;;21.20;99.90;;;;;;5062552;28;20040;-83
2023/08/12 03:42:17;;;;;;;5.60;2.10;;;21.20;99.90;;;;;;5068070;28;20031;-82
2023/08/12 03:44:44;;;;;;;4.78;2.15;;;21.20;99.90;;;;;;5058056;28;20040;-81
2023/08/12 03:47:10;;;;;;;9.05;2.55;;;21.20;99.90;;;;;;5048831;28;20257;-81
2023/08/12 03:49:36;;;;;;;3.92;1.95;;;21.30;99.90;;;;;;5065502;28;20037;-82
2023/08/12 03:52:02;;;;;;;6.30;1.70;;;21.40;99.90;;;;;;5060040;28;20070;-81
2023/08/12 03:54:28;;;;;;;4.53;2.35;;;21.40;99.90;;;;;;5052301;28;20444;-83
2023/08/12 03:56:54;;;;;;;4.40;2.25;;;21.50;99.90;;;;;;5057105;28;20197;-82
2023/08/12 03:59:19;;;;;;;5.78;2.38;;;21.60;99.90;;;;;;5052081;28;20036;-83
2023/08/12 04:01:45;;;;;;;4.80;1.85;;;21.60;99.90;;;;;;5043256;28;20031;-82
2023/08/12 04:04:11;;;;;;;5.18;2.38;;;21.70;99.90;;;;;;5039604;28;20033;-81
2023/08/12 04:06:37;;;;;;;5.03;1.88;;;21.70;99.90;;;;;;5041849;28;20048;-84
2023/08/12 04:09:04;;;;;;;9.02;2.00;;;21.70;99.90;;;;;;5038875;28;20848;-86
2023/08/12 04:11:29;;;;;;;3.72;1.77;;;21.80;99.90;;;;;;5047158;28;20042;-80
2023/08/12 04:13:55;;;;;;;7.22;2.38;;;21.90;99.90;;;;;;5038595;28;20055;-81
2023/08/12 04:16:20;;;;;;;2.40;2.00;;;21.80;99.90;;;;;;5039311;28;21313;-86
2023/08/12 04:18:48;;;;;;;6.85;2.40;;;21.90;99.90;;;;;;5062592;28;20088;-83
2023/08/12 04:21:14;;;;;;;2.40;1.77;;;21.90;99.90;;;;;;5064362;28;20033;-83
2023/08/12 04:23:40;;;;;;;7.32;2.35;;;21.90;99.90;;;;;;5058630;28;20115;-83
2023/08/12 04:26:05;;;;;;;3.10;1.98;;;21.90;99.90;;;;;;5062797;28;20291;-82
2023/08/12 04:28:31;;;;;;;4.00;2.35;;;22.00;99.90;;;;;;5060372;28;20386;-82
2023/08/12 04:30:57;;;;;;;4.72;1.98;;;22.00;99.90;;;;;;5063969;28;20083;-82
2023/08/12 04:33:23;;;;;;;4.45;2.17;;;22.10;99.90;;;;;;5064901;28;20037;-83
2023/08/12 04:35:49;;;;;;;4.03;2.20;;;22.10;99.90;;;;;;5064012;28;20449;-82
2023/08/12 04:38:15;;;;;;;9.32;2.58;;;22.10;99.90;;;;;;5066301;28;20024;-82
2023/08/12 04:40:43;;;;;;;5.70;2.47;;;22.10;99.90;;;;;;5065099;28;20084;-84
2023/08/12 04:43:10;;;;;;;3.83;2.25;;;22.10;99.90;;;;;;5064884;28;20098;-81
2023/08/12 04:45:36;;;;;;;10.75;2.72;;;22.10;99.90;;;;;;5065643;28;20040;-84
2023/08/12 04:48:02;;;;;;;6.28;2.13;;;22.10;99.90;;;;;;5063715;28;20513;-81
2023/08/12 04:50:31;;;;;;;4.85;2.42;;;22.10;99.90;;;;;;5064598;28;20052;-82
2023/08/12 04:52:57;;;;;;;4.05;2.42;;;22.10;99.90;;;;;;5068504;28;20066;-82
2023/08/12 04:55:25;;;;;;;4.63;2.47;;;22.10;99.90;;;;;;5058615;28;20027;-81
2023/08/12 04:57:50;;;;;;;4.93;2.33;;;22.20;99.90;;;;;;5068839;28;20620;-82
2023/08/12 05:00:17;;;;;;;7.07;2.75;;;22.20;99.90;;;;;;5068082;28;20017;-82
2023/08/12 05:02:43;;;;;;;4.05;1.52;;;22.20;99.90;;;;;;5064966;28;20024;-80
2023/08/12 05:05:08;;;;;;;3.63;2.10;;;22.20;99.90;;;;;;5068092;28;20073;-82
2023/08/12 05:07:34;;;;;;;6.07;2.45;;;22.20;99.90;;;;;;5068257;28;20032;-81
2023/08/12 05:10:00;;;;;;;5.05;2.33;;;22.20;99.90;;;;;;5069760;28;20274;-81
2023/08/12 05:12:25;;;;;;;5.65;2.35;;;22.30;99.90;;;;;;5069077;28;20036;-81
2023/08/12 05:14:51;;;;;;;3.10;2.25;;;22.30;99.90;;;;;;5065787;28;20325;-81
2023/08/12 05:17:17;;;;;;;7.00;2.30;;;22.40;99.90;;;;;;5069497;28;20052;-87
2023/08/12 05:19:42;;;;;;;5.38;2.50;;;22.30;99.90;;;;;;5068971;28;20029;-81
2023/08/12 05:22:08;;;;;;;3.70;2.30;;;22.40;99.90;;;;;;5073367;28;20032;-82
2023/08/12 05:24:33;;;;;;;2.92;2.13;;;22.30;99.90;;;;;;5068428;28;20090;-81
2023/08/12 05:26:59;;;;;;;3.47;1.80;;;22.40;99.90;;;;;;5070698;28;20047;-81
2023/08/12 05:29:25;;;;;;;4.63;2.08;;;22.30;99.90;;;;;;5063765;28;20429;-81
2023/08/12 05:31:51;;;;;;;2.38;2.17;;;22.30;99.90;;;;;;5061126;28;20393;-79
2023/08/12 05:34:17;;;;;;;3.80;2.17;;;22.30;99.90;;;;;;5065909;28;20416;-80
2023/08/12 05:36:42;;;;;;;7.00;2.67;;;22.30;99.90;;;;;;5060752;28;20021;-85
2023/08/12 05:39:08;;;;;;;4.10;2.70;;;22.30;99.90;;;;;;5062127;28;20033;-83
2023/08/12 05:41:36;;;;;;;4.03;2.92;;;22.20;99.90;;;;;;5063557;28;20119;-83
2023/08/12 05:44:01;;;;;;;3.10;2.17;;;22.20;99.90;;;;;;5059123;28;20033;-82
2023/08/12 05:46:27;;;;;;;3.83;2.33;;;22.20;99.90;;;;;;5061754;28;20574;-83
2023/08/12 05:48:53;;;;;;;5.65;2.67;;;22.20;99.90;;;;;;5063889;28;20128;-81
2023/08/12 05:51:19;;;;;;;8.35;2.42;;;22.20;99.90;;;;;;5050264;28;20384;-81
2023/08/12 05:53:45;;;;;;;12.70;2.97;;;22.10;99.90;;;;;;5065906;28;20108;-82
2023/08/12 05:56:10;;;;;;;8.63;3.13;;;22.00;99.90;;;;;;5067986;28;20048;-82
2023/08/12 05:58:36;;;;;;;4.80;3.10;;;21.70;99.90;;;;;;5068441;28;20486;-81
2023/08/12 06:01:05;;;;;;;6.00;2.85;;;21.50;99.90;;;;;;5048579;28;20029;-84
2023/08/12 06:03:33;;;;;;;6.25;3.13;;;21.30;99.90;;;;;;5067927;28;20059;-80
2023/08/12 06:05:59;;;;;;;13.88;3.20;;;21.10;99.90;;;;;;5052269;28;20033;-81
2023/08/12 06:08:24;;;;;;;6.88;3.17;;;21.00;99.90;;;;;;5061772;28;20097;-81
2023/08/12 06:10:50;;;;;;;11.45;3.67;;;20.80;99.90;;;;;;5064741;28;20525;-81
2023/08/12 06:13:16;;;;;;;10.00;3.60;;;20.60;99.90;;;;;;5063926;28;20056;-81
2023/08/12 06:15:41;;;;;;;4.72;2.78;;;20.50;99.90;;;;;;5050275;28;20336;-81
2023/08/12 06:18:07;;;;;;;5.20;3.63;;;20.40;99.90;;;;;;5067178;28;20032;-81
2023/08/12 06:20:32;;;;;;;9.50;3.53;;;20.40;99.90;;;;;;5059870;28;20086;-81
2023/08/12 06:22:58;;;;;;;8.65;3.60;;;20.30;99.90;;;;;;5061295;28;20138;-82
2023/08/12 06:25:24;;;;;;;3.55;2.95;;;20.30;99.90;;;;;;5066937;28;20551;-82
2023/08/12 06:27:49;;;;;;;4.00;3.40;;;20.30;99.90;;;;;;5066790;28;20085;-81
2023/08/12 06:30:15;;;;;;;4.47;3.20;;;20.30;99.90;;;;;;5066799;28;20489;-82
2023/08/12 06:32:41;;;;;;;4.15;3.17;;;20.30;99.90;;;;;;5061783;28;20394;-82
2023/08/12 06:35:07;;;;;;;6.03;3.10;;;20.30;99.90;;;;;;5063729;28;20047;-82
2023/08/12 06:37:33;;;;;;;3.45;3.15;;;20.30;99.90;;;;;;5050462;28;20386;-83
2023/08/12 06:39:58;;;;;;;4.80;3.08;;;20.30;99.90;;;;;;5063244;28;20075;-82
2023/08/12 06:42:24;;;;;;;6.13;4.10;;;20.30;99.90;;;;;;5058064;28;20070;-82
2023/08/12 06:45:03;;;;;;;5.45;3.50;;;20.30;99.90;;;;;;5063244;28;20028;-82
2023/08/12 06:47:29;;;;;;;8.48;3.63;;;20.30;99.90;;;;;;5063379;28;20498;-82
2023/08/12 06:49:55;;;;;;;4.22;3.20;;;20.30;99.90;;;;;;5061927;28;20040;-83
2023/08/12 06:52:21;;;;;;;3.70;2.95;;;20.30;99.90;;;;;;5060966;28;20066;-82
2023/08/12 06:54:47;;;;;;;4.47;3.28;;;20.30;99.90;;;;;;5061001;28;20025;-82
2023/08/12 06:57:12;;;;;;;5.90;3.83;;;20.30;99.90;;;;;;5041110;28;20071;-82
2023/08/12 06:59:38;;;;;;;4.97;3.33;;;20.40;99.90;;;;;;5058958;28;20083;-82
2023/08/12 07:02:05;;;;;;;5.88;3.17;;;20.40;99.90;;;;;;5058923;28;20112;-83
2023/08/12 07:04:30;;;;;;;3.25;2.83;;;20.40;99.90;;;;;;5060667;28;20025;-82
2023/08/12 07:06:59;;;;;;;4.05;3.25;;;20.40;99.90;;;;;;5060288;28;20060;-83
2023/08/12 07:09:25;;;;;;;4.60;3.17;;;20.30;99.90;;;;;;5060799;28;20036;-82
2023/08/12 07:11:50;;;;;;;7.47;3.42;;;20.30;99.90;;;;;;5056826;28;20292;-82
2023/08/12 07:14:17;;;;;;;3.90;3.03;;;20.30;99.90;;;;;;5057001;28;20023;-82
2023/08/12 07:16:43;;;;;;;10.50;3.40;;;20.30;99.90;;;;;;5055944;28;20031;-81
2023/08/12 07:19:09;;;;;;;4.00;2.63;;;20.30;99.90;;;;;;5041664;28;20486;-82
2023/08/12 07:21:34;;;;;;;5.47;2.58;;;20.30;99.90;;;;;;5044397;28;20025;-82
2023/08/12 07:24:00;;;;;;;4.97;2.88;;;20.30;99.90;;;;;;5057569;28;20138;-81
2023/08/12 07:26:25;;;;;;;3.80;3.15;;;20.30;99.90;;;;;;5059844;28;20113;-82
2023/08/12 07:28:51;;;;;;;3.78;2.53;;;20.30;99.90;;;;;;5074699;28;20149;-82
2023/08/12 07:31:18;;;;;;;4.13;2.60;;;20.30;99.90;;;;;;5062725;28;20029;-82
2023/08/12 07:33:43;;;;;;;8.88;3.40;;;20.30;99.90;;;;;;5054159;28;20028;-82
2023/08/12 07:36:09;;;;;;;5.90;3.15;;;20.30;99.90;;;;;;5054517;28;20032;-82
2023/08/12 07:38:35;;;;;;;5.90;2.78;;;20.30;99.90;;;;;;5055856;28;20024;-82
2023/08/12 07:41:00;;;;;;;4.03;2.67;;;20.30;99.90;;;;;;5059341;28;20052;-82
2023/08/12 07:43:27;;;;;;;6.70;3.28;;;20.30;99.90;;;;;;5058440;28;20036;-82
2023/08/12 07:45:53;;;;;;;4.05;2.22;;;20.30;99.90;;;;;;5060555;28;20020;-81
2023/08/12 07:48:20;;;;;;;4.50;3.30;;;20.30;99.90;;;;;;5042294;28;20036;-82
2023/08/12 07:50:48;;;;;;;4.38;2.92;;;20.30;99.90;;;;;;5059085;28;20123;-82
2023/08/12 07:53:16;;;;;;;3.95;3.20;;;20.30;99.90;;;;;;5061255;28;20031;-82
2023/08/12 07:55:43;;;;;;;4.18;2.55;;;20.30;99.90;;;;;;5037278;28;20029;-82
2023/08/12 07:58:08;;;;;;;4.20;3.17;;;20.40;99.90;;;;;;5060563;28;20066;-82
2023/08/12 08:00:34;;;;;;;4.85;3.45;;;20.40;99.90;;;;;;5055916;28;20024;-82
2023/08/12 08:03:00;;;;;;;8.68;3.22;;;20.50;99.90;;;;;;5062651;28;20371;-82
2023/08/12 08:05:25;;;;;;;7.60;3.13;;;20.50;99.90;;;;;;5059296;28;20054;-81
2023/08/12 08:07:51;;;;;;;4.68;3.17;;;20.50;99.90;;;;;;5062434;28;20028;-81
2023/08/12 08:10:16;;;;;;;3.38;2.72;;;20.60;99.90;;;;;;5059404;28;20032;-81
2023/08/12 08:12:42;;;;;;;5.13;2.90;;;20.60;99.90;;;;;;5064800;28;20020;-81
2023/08/12 08:15:08;;;;;;;4.18;3.03;;;20.60;99.90;;;;;;5066442;28;20369;-81
2023/08/12 08:17:33;;;;;;;10.85;3.15;;;20.70;99.90;;;;;;5065879;28;20373;-81
2023/08/12 08:19:59;;;;;;;4.32;2.83;;;20.70;99.90;;;;;;5063271;28;20489;-81
2023/08/12 08:22:24;;;;;;;4.00;3.10;;;20.60;99.90;;;;;;5063855;28;20061;-81
2023/08/12 08:24:50;;;;;;;11.50;3.13;;;20.60;99.90;;;;;;5066187;28;20060;-81
2023/08/12 08:27:15;;;;;;;6.25;3.55;;;20.60;99.90;;;;;;5070663;28;20123;-81
2023/08/12 08:29:41;;;;;;;10.18;3.00;;;20.60;99.90;;;;;;5052417;28;20024;-81
2023/08/12 08:32:07;;;;;;;7.93;3.08;;;20.60;99.90;;;;;;5070762;28;20409;-81
2023/08/12 08:34:32;;;;;;;4.57;2.80;;;20.60;99.90;;;;;;5055065;28;20031;-81
2023/08/12 08:36:58;;;;;;;3.83;2.80;;;20.60;99.90;;;;;;5063802;28;20032;-81
2023/08/12 08:39:23;;;;;;;4.35;2.78;;;20.60;99.90;;;;;;5066363;28;20043;-81
2023/08/12 08:41:49;;;;;;;8.13;3.47;;;20.60;99.90;;;;;;5051534;28;20182;-81
2023/08/12 08:44:15;;;;;;;4.03;3.33;;;20.50;99.90;;;;;;5067896;28;20075;-81
2023/08/12 08:46:43;;;;;;;22.90;4.13;;;20.50;99.90;;;;;;5062758;28;20481;-80
2023/08/12 08:49:10;;;;;;;89.43;9.45;;;20.50;99.90;;;;;;5070764;28;20040;-81
2023/08/12 08:51:35;;;;;;;5.60;3.80;;;20.50;99.90;;;;;;5066611;28;20037;-81
2023/08/12 08:54:04;;;;;;;5.25;3.35;;;20.50;99.90;;;;;;5066513;28;20107;-81
2023/08/12 08:56:33;;;;;;;17.33;13.85;;;20.60;99.90;;;;;;5062494;28;20024;-81
2023/08/12 08:58:59;;;;;;;206.65;183.98;;;20.60;99.90;;;;;;5050883;28;20028;-81
2023/08/12 09:01:29;;;;;;;104.63;21.52;;;20.70;99.90;;;;;;5067770;28;20031;-82
2023/08/12 09:03:55;;;;;;;82.72;12.88;;;20.70;99.90;;;;;;5067973;28;20067;-81
2023/08/12 09:06:22;;;;;;;7.03;4.03;;;20.70;99.90;;;;;;5061096;28;20037;-81
2023/08/12 09:08:50;;;;;;;5.07;3.25;;;20.80;99.90;;;;;;5064070;28;20492;-82
2023/08/12 09:11:17;;;;;;;7.00;3.05;;;20.90;99.90;;;;;;5062677;28;20171;-80
2023/08/12 09:13:43;;;;;;;12.07;8.02;;;21.00;99.90;;;;;;5062069;28;20031;-81
2023/08/12 09:16:09;;;;;;;42.75;38.22;;;20.90;99.90;;;;;;5065632;28;20029;-81
2023/08/12 09:18:35;;;;;;;69.13;52.97;;;20.90;99.90;;;;;;5068607;28;20107;-82
2023/08/12 09:21:00;;;;;;;43.63;27.38;;;20.90;99.90;;;;;;5066840;28;20027;-81
2023/08/12 09:23:27;;;;;;;34.03;10.77;;;21.00;99.90;;;;;;5067103;28;20035;-81
2023/08/12 09:25:53;;;;;;;17.83;15.98;;;21.00;99.90;;;;;;5064414;28;20024;-81
2023/08/12 09:28:18;;;;;;;7.55;6.22;;;21.00;99.90;;;;;;5068620;28;20025;-82
2023/08/12 09:30:52;;;;;;;5.97;3.75;;;21.10;99.90;;;;;;5065400;28;20066;-81
2023/08/12 09:33:25;;;;;;;13.40;4.75;;;21.30;99.90;;;;;;5067809;28;20033;-81
2023/08/12 09:35:50;;;;;;;4.60;3.38;;;21.40;99.90;;;;;;5067773;28;20016;-81
2023/08/12 09:38:16;;;;;;;5.78;3.13;;;21.40;99.90;;;;;;5046564;28;20473;-81
2023/08/12 09:40:42;;;;;;;8.60;3.85;;;21.50;99.90;;;;;;5071103;28;20052;-81
2023/08/12 09:43:08;;;;;;;5.25;3.60;;;21.50;99.90;;;;;;5060422;28;20375;-81
2023/08/12 09:45:34;;;;;;;4.43;3.58;;;21.50;99.90;;;;;;5067351;28;20017;-82
2023/08/12 09:48:00;;;;;;;7.38;4.32;;;21.60;99.90;;;;;;5065173;28;20040;-82
2023/08/12 09:50:27;;;;;;;11.68;4.63;;;21.60;99.90;;;;;;5068683;28;20066;-82
2023/08/12 09:52:54;;;;;;;29.85;7.78;;;21.60;99.90;;;;;;5062481;28;20040;-81
2023/08/12 09:55:22;;;;;;;44.53;14.00;;;21.70;99.90;;;;;;5063956;28;20024;-82
2023/08/12 09:57:52;;;;;;;61.97;19.75;;;21.70;99.90;;;;;;5063893;28;20033;-82
2023/08/12 10:00:19;;;;;;;24.00;9.50;;;21.70;99.90;;;;;;5058153;28;20021;-82
2023/08/12 10:02:53;;;;;;;26.48;7.15;;;21.80;99.90;;;;;;5066441;28;20024;-82
2023/08/12 10:05:26;;;;;;;185.82;19.13;;;21.80;99.90;;;;;;5064454;28;20413;-82
2023/08/12 10:07:53;;;;;;;188.50;20.33;;;21.80;99.90;;;;;;5065023;28;20040;-82
2023/08/12 10:10:19;;;;;;;137.57;15.52;;;21.80;99.90;;;;;;5065408;28;20439;-82
2023/08/12 10:12:46;;;;;;;52.25;7.53;;;21.90;99.90;;;;;;5060283;28;20465;-82
2023/08/12 10:15:12;;;;;;;15.95;4.18;;;21.90;99.90;;;;;;5059513;28;20025;-82
2023/08/12 10:17:40;;;;;;;5.50;3.97;;;21.90;99.90;;;;;;5059824;28;20098;-82
2023/08/12 10:20:08;;;;;;;6.70;3.90;;;22.00;99.90;;;;;;5042355;28;20057;-82
2023/08/12 10:22:35;;;;;;;4.00;3.40;;;22.10;99.90;;;;;;5066549;28;20028;-82
2023/08/12 10:25:03;;;;;;;4.72;3.58;;;22.10;99.90;;;;;;5044302;28;20058;-82
2023/08/12 10:27:29;;;;;;;5.10;3.50;;;22.20;99.90;;;;;;5050647;28;20111;-82
2023/08/12 10:29:58;;;;;;;4.97;3.45;;;22.30;99.90;;;;;;5066240;28;20536;-82
2023/08/12 10:32:25;;;;;;;4.57;3.67;;;22.40;99.90;;;;;;5062065;28;20052;-82
2023/08/12 10:34:57;;;;;;;5.63;3.33;;;22.60;99.90;;;;;;5053005;28;20472;-81
2023/08/12 10:37:25;;;;;;;4.28;3.85;;;22.90;99.90;;;;;;5058396;28;20087;-81
2023/08/12 10:39:53;;;;;;;8.15;3.38;;;23.20;99.90;;;;;;5065061;28;20566;-83
2023/08/12 10:42:44;;;;;;;6.15;3.38;;;23.50;99.90;;;;;;5058167;28;20077;-85
2023/08/12 10:45:11;;;;;;;7.93;3.38;;;23.80;99.90;;;;;;5057400;28;20127;-82
2023/08/12 10:47:43;;;;;;;6.43;3.33;;;24.00;99.90;;;;;;5044735;28;20028;-82
2023/08/12 10:50:22;;;;;;;6.68;3.90;;;24.20;99.90;;;;;;5063727;28;20029;-82
2023/08/12 10:52:53;;;;;;;17.52;4.72;;;24.40;99.90;;;;;;5065621;28;20042;-83
2023/08/12 10:55:20;;;;;;;4.93;4.25;;;24.50;99.90;;;;;;5067247;28;20024;-82
2023/08/12 10:57:48;;;;;;;12.77;3.92;;;24.60;99.90;;;;;;5067351;28;20024;-82
2023/08/12 11:00:21;;;;;;;9.52;3.70;;;24.70;99.90;;;;;;5067389;28;20135;-83
2023/08/12 11:02:51;;;;;;;10.32;3.50;;;24.70;99.90;;;;;;5067536;28;20097;-82
2023/08/12 11:05:19;;;;;;;7.78;3.70;;;24.80;99.90;;;;;;5065105;28;20016;-83
2023/08/12 11:08:03;;;;;;;5.95;3.63;;;24.80;99.90;;;;;;5058003;28;20469;-84
2023/08/12 11:10:31;;;;;;;5.88;3.90;;;24.90;99.90;;;;;;5069366;28;20067;-82
2023/08/12 11:12:57;;;;;;;3.40;3.10;;;25.10;99.90;;;;;;5065773;28;20021;-81
2023/08/12 11:15:33;;;;;;;13.07;4.10;;;25.30;99.90;;;;;;5060121;28;20024;-85
2023/08/12 11:18:03;;;;;;;7.47;4.30;;;25.40;99.90;;;;;;5055229;28;20063;-83
2023/08/12 11:20:31;;;;;;;5.13;3.50;;;25.40;99.90;;;;;;5070633;28;20035;-80
2023/08/12 11:23:00;;;;;;;6.45;3.35;;;25.40;99.90;;;;;;5062974;28;20021;-81
2023/08/12 11:25:27;;;;;;;4.85;3.42;;;25.60;99.90;;;;;;5044138;28;20055;-82
2023/08/12 11:27:53;;;;;;;7.00;3.40;;;25.70;99.90;;;;;;5066070;28;20043;-80
2023/08/12 11:30:21;;;;;;;8.07;3.55;;;25.80;99.90;;;;;;5066700;28;20024;-82
2023/08/12 11:32:52;;;;;;;14.13;3.88;;;26.00;99.90;;;;;;5061826;28;20414;-84
2023/08/12 11:35:18;;;;;;;8.45;3.72;;;26.00;99.90;;;;;;5060484;28;20130;-83
2023/08/12 11:37:46;;;;;;;6.75;3.50;;;26.00;99.90;;;;;;5064924;28;20504;-83
2023/08/12 11:40:17;;;;;;;6.78;3.78;;;25.90;99.90;;;;;;5060110;28;20404;-81
2023/08/12 11:42:44;;;;;;;4.32;3.85;;;25.90;99.90;;;;;;5064341;28;20044;-83
2023/08/12 11:45:11;;;;;;;7.18;3.15;;;26.00;99.90;;;;;;5057558;28;20028;-84
2023/08/12 11:47:39;;;;;;;4.18;3.15;;;26.00;99.90;;;;;;5064239;28;20028;-82
2023/08/12 11:50:06;;;;;;;5.40;3.55;;;26.10;99.90;;;;;;5065729;28;20025;-83
2023/08/12 11:52:32;;;;;;;4.72;3.50;;;26.10;99.90;;;;;;5065302;28;20020;-84
2023/08/12 11:54:59;;;;;;;6.75;3.45;;;26.20;99.90;;;;;;5065627;28;20374;-83
2023/08/12 11:57:26;;;;;;;6.35;3.42;;;26.20;99.90;;;;;;5060179;28;20086;-82
2023/08/12 11:59:51;;;;;;;5.93;3.45;;;26.10;99.90;;;;;;5055594;28;20560;-82
2023/08/12 12:02:17;;;;;;;3.70;3.40;;;26.00;99.90;;;;;;5060581;28;20028;-81
2023/08/12 12:04:43;;;;;;;5.40;2.72;;;25.90;99.90;;;;;;5063629;28;20025;-82
2023/08/12 12:07:23;;;;;;;7.82;3.63;;;25.80;99.90;;;;;;5060542;28;20035;-81
2023/08/12 12:09:53;;;;;;;3.67;2.88;;;25.70;99.90;;;;;;5057794;28;20024;-82
2023/08/12 12:12:25;;;;;;;4.78;3.40;;;25.60;99.90;;;;;;5060361;28;20045;-82
2023/08/12 12:14:52;;;;;;;7.85;3.67;;;25.50;99.90;;;;;;5063817;28;20067;-83
2023/08/12 12:17:21;;;;;;;4.53;3.58;;;25.40;99.90;;;;;;5052732;28;20033;-82
2023/08/12 12:19:46;;;;;;;5.07;3.45;;;25.40;99.90;;;;;;5059594;28;20024;-83
2023/08/12 12:22:12;;;;;;;5.15;3.28;;;25.30;99.90;;;;;;5060881;28;20078;-84
2023/08/12 12:24:48;;;;;;;4.80;3.67;;;25.20;99.90;;;;;;5061312;28;20507;-82
2023/08/12 12:27:14;;;;;;;4.78;3.17;;;25.30;99.90;;;;;;5063527;28;20032;-82
2023/08/12 12:29:41;;;;;;;5.88;3.70;;;25.20;99.90;;;;;;5064604;28;20023;-82
2023/08/12 12:32:07;;;;;;;4.22;3.67;;;25.30;99.90;;;;;;5062371;28;20032;-83
2023/08/12 12:34:35;;;;;;;6.72;3.20;;;25.30;99.90;;;;;;5063625;28;20028;-83
2023/08/12 12:37:01;;;;;;;4.82;3.40;;;25.50;99.90;;;;;;5060128;28;20020;-82
2023/08/12 12:39:27;;;;;;;6.45;3.60;;;25.70;99.90;;;;;;5057720;28;20045;-82
2023/08/12 12:41:52;;;;;;;6.32;3.58;;;25.80;99.90;;;;;;5063484;28;20059;-83
2023/08/12 12:44:18;;;;;;;6.65;3.65;;;25.90;99.90;;;;;;5061033;28;20024;-83